createdAt,value
2023-03-26T00:03:35.888Z,0.00
2023-03-26T00:13:42.313Z,0.00
2023-03-26T00:23:48.570Z,0.00
2023-03-26T00:33:56.018Z,0.00
2023-03-26T00:44:03.548Z,0.00
2023-03-26T00:54:11.008Z,0.00
2023-03-26T01:04:18.554Z,0.00
2023-03-26T01:14:25.796Z,0.00
2023-03-26T01:24:32.756Z,0.00
2023-03-26T01:34:40.255Z,0.00
2023-03-26T01:44:47.604Z,0.00
2023-03-26T01:54:54.889Z,0.00
2023-03-26T02:05:02.002Z,0.00
2023-03-26T02:15:09.223Z,0.00
2023-03-26T02:25:16.221Z,0.00
2023-03-26T02:35:23.472Z,0.00
2023-03-26T02:45:31.235Z,0.00
2023-03-26T02:55:38.423Z,0.00
2023-03-26T03:05:45.350Z,0.00
2023-03-26T03:15:52.374Z,0.00
2023-03-26T03:26:00.475Z,0.00
2023-03-26T03:36:07.380Z,0.00
2023-03-26T03:46:14.170Z,0.00
2023-03-26T03:56:21.406Z,0.00
2023-03-26T04:06:28.154Z,0.00
2023-03-26T04:16:34.741Z,0.00
2023-03-26T04:26:41.333Z,0.00
2023-03-26T04:36:47.607Z,0.00
2023-03-26T04:46:54.600Z,0.00
2023-03-26T04:57:02.058Z,8.00
2023-03-26T05:07:09.865Z,12.00
2023-03-26T05:17:16.761Z,200.00
2023-03-26T05:27:23.825Z,204.00
2023-03-26T05:37:31.079Z,256.00
2023-03-26T05:47:38.564Z,244.00
2023-03-26T05:57:46.295Z,216.00
2023-03-26T06:07:53.199Z,208.00
2023-03-26T06:17:59.972Z,224.00
2023-03-26T06:28:07.342Z,228.00
2023-03-26T06:38:14.071Z,320.00
2023-03-26T06:48:21.152Z,632.00
2023-03-26T06:58:28.317Z,916.00
2023-03-26T07:08:35.143Z,716.00
2023-03-26T07:18:42.304Z,864.00
2023-03-26T07:29:05.011Z,380.00
2023-03-26T07:39:01.692Z,360.00
2023-03-26T07:49:08.760Z,352.00
2023-03-26T07:59:15.378Z,368.00
2023-03-26T08:09:22.540Z,336.00
2023-03-26T08:19:30.028Z,380.00
2023-03-26T08:29:36.597Z,448.00
2023-03-26T08:39:43.813Z,456.00
2023-03-26T08:49:50.859Z,540.00
2023-03-26T08:59:57.901Z,592.00
2023-03-26T09:10:05.382Z,556.00
2023-03-26T09:20:12.147Z,420.00
2023-03-26T09:30:19.592Z,416.00
2023-03-26T09:40:26.054Z,356.00
2023-03-26T09:50:32.932Z,480.00
2023-03-26T10:00:39.975Z,752.00
2023-03-26T10:10:46.866Z,508.00
2023-03-26T10:20:54.268Z,352.00
2023-03-26T10:31:01.926Z,460.00
2023-03-26T10:41:08.543Z,572.00
2023-03-26T10:51:15.770Z,484.00
2023-03-26T11:01:23.250Z,728.00
2023-03-26T11:11:30.968Z,628.00
2023-03-26T11:21:38.184Z,868.00
2023-03-26T11:31:45.159Z,388.00
2023-03-26T11:41:52.484Z,524.00
2023-03-26T11:51:59.440Z,596.00
2023-03-26T12:02:06.583Z,488.00
2023-03-26T12:12:13.850Z,624.00
2023-03-26T12:22:20.676Z,736.00
2023-03-26T12:32:42.885Z,692.00
2023-03-26T12:44:55.724Z,584.00
2023-03-26T12:52:51.860Z,580.00
2023-03-26T13:02:59.120Z,636.00
2023-03-26T13:13:06.777Z,548.00
2023-03-26T13:23:14.016Z,588.00
2023-03-26T13:33:21.370Z,460.00
2023-03-26T13:43:28.139Z,588.00
2023-03-26T13:53:35.140Z,560.00
2023-03-26T14:03:41.962Z,568.00
2023-03-26T14:13:49.393Z,524.00
2023-03-26T14:23:56.067Z,472.00
2023-03-26T14:34:03.090Z,432.00
2023-03-26T14:44:10.499Z,540.00
2023-03-26T14:54:17.261Z,388.00
2023-03-26T15:04:24.441Z,396.00
2023-03-26T15:14:31.480Z,396.00
2023-03-26T15:24:38.451Z,388.00
2023-03-26T15:34:45.622Z,376.00
2023-03-26T15:44:53.939Z,372.00
2023-03-26T15:55:02.014Z,340.00
2023-03-26T16:05:09.757Z,324.00
2023-03-26T16:15:16.707Z,300.00
2023-03-26T16:25:26.869Z,276.00
2023-03-26T16:35:36.055Z,256.00
2023-03-26T16:45:42.817Z,236.00
2023-03-26T16:55:49.708Z,208.00
2023-03-26T17:05:57.185Z,196.00
2023-03-26T17:16:05.333Z,180.00
2023-03-26T17:26:12.773Z,180.00
2023-03-26T17:36:20.353Z,4.00
2023-03-26T17:46:28.157Z,0.00
2023-03-26T17:56:35.219Z,0.00
2023-03-26T18:06:42.647Z,0.00
2023-03-26T18:16:50.077Z,0.00
2023-03-26T18:26:57.136Z,0.00
2023-03-26T18:37:04.330Z,0.00
2023-03-26T18:47:11.106Z,0.00
2023-03-26T18:57:18.590Z,0.00
2023-03-26T19:07:25.535Z,0.00
2023-03-26T19:17:32.995Z,0.00
2023-03-26T19:27:39.482Z,0.00
2023-03-26T19:37:47.865Z,0.00
2023-03-26T19:48:03.968Z,0.00
2023-03-26T19:58:06.760Z,0.00
2023-03-26T20:08:13.449Z,0.00
2023-03-26T20:18:20.768Z,0.00
2023-03-26T20:28:27.826Z,0.00
2023-03-26T20:38:39.369Z,0.00
2023-03-26T20:48:47.196Z,0.00
2023-03-26T20:59:03.488Z,0.00
2023-03-26T21:09:06.121Z,0.00
2023-03-26T21:19:12.981Z,0.00
2023-03-26T21:29:19.862Z,0.00
2023-03-26T21:39:26.789Z,0.00
2023-03-26T21:49:34.260Z,0.00
2023-03-26T21:59:41.263Z,0.00
2023-03-26T22:09:48.392Z,0.00
2023-03-26T22:19:55.324Z,0.00
2023-03-26T22:30:02.744Z,0.00
2023-03-26T22:40:09.464Z,0.00
2023-03-26T22:50:16.447Z,0.00
2023-03-26T23:00:23.381Z,0.00
2023-03-26T23:10:30.716Z,0.00
2023-03-26T23:20:37.666Z,0.00
2023-03-26T23:30:44.825Z,0.00
2023-03-26T23:40:57.255Z,0.00
2023-03-26T23:51:04.537Z,0.00
